sensor_id;sensor_type;location;lat;lon;timestamp;P1;durP1;ratioP1;P2;durP2;ratioP2
60426;SDS011;46274;47.168;27.604;2024-02-16T00:02:20;9.33;;;4.67;;
60426;SDS011;46274;47.168;27.604;2024-02-16T00:09:04;9.27;;;5.10;;
60426;SDS011;46274;47.168;27.604;2024-02-16T00:15:51;7.10;;;4.10;;
60426;SDS011;46274;47.168;27.604;2024-02-16T00:29:34;8.93;;;5.00;;
60426;SDS011;46274;47.168;27.604;2024-02-16T00:35:49;6.47;;;3.83;;
60426;SDS011;46274;47.168;27.604;2024-02-16T00:42:09;9.50;;;4.93;;
60426;SDS011;46274;47.168;27.604;2024-02-16T00:48:36;9.07;;;5.23;;
60426;SDS011;46274;47.168;27.604;2024-02-16T00:55:18;11.50;;;5.50;;
60426;SDS011;46274;47.168;27.604;2024-02-16T01:01:40;8.57;;;5.20;;
60426;SDS011;46274;47.168;27.604;2024-02-16T01:08:08;11.10;;;6.17;;
60426;SDS011;46274;47.168;27.604;2024-02-16T01:14:15;10.37;;;6.40;;
60426;SDS011;46274;47.168;27.604;2024-02-16T01:20:40;9.67;;;6.37;;
60426;SDS011;46274;47.168;27.604;2024-02-16T01:27:09;14.47;;;7.37;;
60426;SDS011;46274;47.168;27.604;2024-02-16T01:33:26;13.47;;;7.57;;
60426;SDS011;46274;47.168;27.604;2024-02-16T01:39:56;14.53;;;6.70;;
60426;SDS011;46274;47.168;27.604;2024-02-16T01:46:53;12.00;;;6.53;;
60426;SDS011;46274;47.168;27.604;2024-02-16T01:53:49;12.37;;;6.67;;
60426;SDS011;46274;47.168;27.604;2024-02-16T02:00:37;11.80;;;6.47;;
60426;SDS011;46274;47.168;27.604;2024-02-16T02:06:41;17.90;;;8.70;;
60426;SDS011;46274;47.168;27.604;2024-02-16T02:13:20;18.10;;;8.20;;
60426;SDS011;46274;47.168;27.604;2024-02-16T02:19:28;18.20;;;8.63;;
60426;SDS011;46274;47.168;27.604;2024-02-16T02:25:45;14.90;;;8.00;;
60426;SDS011;46274;47.168;27.604;2024-02-16T02:32:02;19.97;;;9.50;;
60426;SDS011;46274;47.168;27.604;2024-02-16T02:38:37;19.67;;;8.90;;
60426;SDS011;46274;47.168;27.604;2024-02-16T02:45:03;16.43;;;8.37;;
60426;SDS011;46274;47.168;27.604;2024-02-16T02:51:19;15.50;;;8.10;;
60426;SDS011;46274;47.168;27.604;2024-02-16T02:57:45;17.50;;;9.70;;
60426;SDS011;46274;47.168;27.604;2024-02-16T03:03:53;23.20;;;10.10;;
60426;SDS011;46274;47.168;27.604;2024-02-16T03:10:23;20.00;;;9.47;;
60426;SDS011;46274;47.168;27.604;2024-02-16T03:16:53;21.63;;;10.40;;
60426;SDS011;46274;47.168;27.604;2024-02-16T03:23:25;18.13;;;9.57;;
60426;SDS011;46274;47.168;27.604;2024-02-16T03:29:35;24.53;;;12.00;;
60426;SDS011;46274;47.168;27.604;2024-02-16T03:36:08;23.40;;;10.10;;
60426;SDS011;46274;47.168;27.604;2024-02-16T03:42:39;23.80;;;11.10;;
60426;SDS011;46274;47.168;27.604;2024-02-16T03:48:50;25.63;;;11.73;;
60426;SDS011;46274;47.168;27.604;2024-02-16T03:55:08;29.43;;;13.23;;
60426;SDS011;46274;47.168;27.604;2024-02-16T04:02:00;28.17;;;12.17;;
60426;SDS011;46274;47.168;27.604;2024-02-16T04:08:26;23.37;;;10.17;;
60426;SDS011;46274;47.168;27.604;2024-02-16T04:14:56;30.27;;;12.30;;
60426;SDS011;46274;47.168;27.604;2024-02-16T04:21:19;24.30;;;11.03;;
60426;SDS011;46274;47.168;27.604;2024-02-16T04:27:54;22.07;;;9.90;;
60426;SDS011;46274;47.168;27.604;2024-02-16T04:34:22;22.97;;;11.47;;
60426;SDS011;46274;47.168;27.604;2024-02-16T04:40:33;21.07;;;9.97;;
60426;SDS011;46274;47.168;27.604;2024-02-16T04:47:01;18.10;;;8.77;;
60426;SDS011;46274;47.168;27.604;2024-02-16T04:53:05;22.83;;;9.90;;
60426;SDS011;46274;47.168;27.604;2024-02-16T04:59:37;19.40;;;8.20;;
60426;SDS011;46274;47.168;27.604;2024-02-16T05:05:53;22.60;;;9.60;;
60426;SDS011;46274;47.168;27.604;2024-02-16T05:11:56;23.77;;;11.27;;
60426;SDS011;46274;47.168;27.604;2024-02-16T05:18:17;30.00;;;13.47;;
60426;SDS011;46274;47.168;27.604;2024-02-16T05:24:43;26.43;;;12.43;;
60426;SDS011;46274;47.168;27.604;2024-02-16T05:30:46;34.67;;;15.43;;
60426;SDS011;46274;47.168;27.604;2024-02-16T05:36:59;37.27;;;15.87;;
60426;SDS011;46274;47.168;27.604;2024-02-16T05:43:16;23.93;;;11.53;;
60426;SDS011;46274;47.168;27.604;2024-02-16T05:49:40;20.70;;;8.97;;
60426;SDS011;46274;47.168;27.604;2024-02-16T05:55:55;27.87;;;11.63;;
60426;SDS011;46274;47.168;27.604;2024-02-16T06:02:03;21.17;;;9.57;;
60426;SDS011;46274;47.168;27.604;2024-02-16T06:08:20;30.53;;;13.13;;
60426;SDS011;46274;47.168;27.604;2024-02-16T06:14:33;22.33;;;9.67;;
60426;SDS011;46274;47.168;27.604;2024-02-16T06:21:00;31.57;;;13.57;;
60426;SDS011;46274;47.168;27.604;2024-02-16T06:27:23;24.33;;;11.87;;
60426;SDS011;46274;47.168;27.604;2024-02-16T06:33:56;29.13;;;13.03;;
60426;SDS011;46274;47.168;27.604;2024-02-16T06:40:16;23.83;;;11.00;;
60426;SDS011;46274;47.168;27.604;2024-02-16T06:46:40;35.40;;;14.73;;
60426;SDS011;46274;47.168;27.604;2024-02-16T06:52:48;35.37;;;15.00;;
60426;SDS011;46274;47.168;27.604;2024-02-16T06:59:14;24.47;;;11.37;;
60426;SDS011;46274;47.168;27.604;2024-02-16T07:05:42;23.67;;;10.77;;
60426;SDS011;46274;47.168;27.604;2024-02-16T07:12:22;30.63;;;12.20;;
60426;SDS011;46274;47.168;27.604;2024-02-16T07:18:25;25.53;;;11.97;;
60426;SDS011;46274;47.168;27.604;2024-02-16T07:25:00;32.37;;;13.77;;
60426;SDS011;46274;47.168;27.604;2024-02-16T07:31:18;30.77;;;12.47;;
60426;SDS011;46274;47.168;27.604;2024-02-16T07:37:20;29.73;;;14.13;;
60426;SDS011;46274;47.168;27.604;2024-02-16T07:43:52;37.90;;;13.00;;
60426;SDS011;46274;47.168;27.604;2024-02-16T07:50:17;31.10;;;14.07;;
60426;SDS011;46274;47.168;27.604;2024-02-16T07:56:59;28.90;;;12.37;;
60426;SDS011;46274;47.168;27.604;2024-02-16T08:03:19;34.33;;;14.10;;
60426;SDS011;46274;47.168;27.604;2024-02-16T08:09:53;23.87;;;10.70;;
60426;SDS011;46274;47.168;27.604;2024-02-16T08:15:58;42.57;;;14.67;;
60426;SDS011;46274;47.168;27.604;2024-02-16T08:22:07;35.20;;;14.80;;
60426;SDS011;46274;47.168;27.604;2024-02-16T08:28:46;28.40;;;13.20;;
60426;SDS011;46274;47.168;27.604;2024-02-16T08:35:19;31.17;;;13.27;;
60426;SDS011;46274;47.168;27.604;2024-02-16T08:41:44;32.87;;;14.77;;
60426;SDS011;46274;47.168;27.604;2024-02-16T08:48:11;33.20;;;13.77;;
60426;SDS011;46274;47.168;27.604;2024-02-16T08:54:27;28.90;;;11.93;;
60426;SDS011;46274;47.168;27.604;2024-02-16T09:01:02;26.67;;;12.63;;
60426;SDS011;46274;47.168;27.604;2024-02-16T09:07:11;26.73;;;12.20;;
60426;SDS011;46274;47.168;27.604;2024-02-16T09:13:39;32.47;;;14.50;;
60426;SDS011;46274;47.168;27.604;2024-02-16T09:20:12;33.03;;;14.73;;
60426;SDS011;46274;47.168;27.604;2024-02-16T09:26:50;32.43;;;13.60;;
60426;SDS011;46274;47.168;27.604;2024-02-16T09:33:49;43.03;;;19.40;;
60426;SDS011;46274;47.168;27.604;2024-02-16T09:40:38;33.67;;;15.70;;
60426;SDS011;46274;47.168;27.604;2024-02-16T09:54:20;34.93;;;15.23;;
60426;SDS011;46274;47.168;27.604;2024-02-16T10:45:03;28.73;;;12.07;;
60426;SDS011;46274;47.168;27.604;2024-02-16T12:06:18;38.37;;;13.67;;
60426;SDS011;46274;47.168;27.604;2024-02-16T12:20:30;11.83;;;5.77;;
60426;SDS011;46274;47.168;27.604;2024-02-16T13:09:20;14.30;;;5.97;;
60426;SDS011;46274;47.168;27.604;2024-02-16T13:31:28;12.40;;;6.23;;
60426;SDS011;46274;47.168;27.604;2024-02-16T16:05:43;11.80;;;7.33;;
60426;SDS011;46274;47.168;27.604;2024-02-16T18:10:12;39.47;;;19.33;;
60426;SDS011;46274;47.168;27.604;2024-02-16T20:10:25;86.80;;;34.10;;
60426;SDS011;46274;47.168;27.604;2024-02-16T21:08:06;48.90;;;19.30;;
60426;SDS011;46274;47.168;27.604;2024-02-16T21:54:53;39.63;;;17.37;;
60426;SDS011;46274;47.168;27.604;2024-02-16T22:09:27;36.60;;;18.07;;
60426;SDS011;46274;47.168;27.604;2024-02-16T23:08:37;41.93;;;19.60;;
60426;SDS011;46274;47.168;27.604;2024-02-16T23:30:32;41.40;;;18.27;;
